Time;durP1;ratioP1;P1;durP2;ratioP2;P2;SDS_P1;SDS_P2;PMS_P1;PMS_P2;Temp;Humidity;BMP_temperature;BMP_pressure;BME280_temperature;BME280_humidity;BME280_pressure;Samples;Min_cycle;Max_cycle;Signal;HPM_P1;HPM_P2
2022/02/21 00:00:52;;;;;;;13.25;4.13;;;;;;;;;;4975740;28;20501;-74
2022/02/21 00:03:20;;;;;;;15.73;4.70;;;;;;;;;;4981009;28;20034;-74
2022/02/21 00:05:50;;;;;;;11.90;3.78;;;;;;;;;;4985026;28;20380;-74
2022/02/21 00:08:16;;;;;;;19.27;5.43;;;;;;;;;;4988322;28;20437;-75
2022/02/21 00:10:42;;;;;;;15.30;4.78;;;;;;;;;;4985988;28;20500;-73
2022/02/21 00:13:08;;;;;;;15.10;4.20;;;;;;;;;;4982071;28;20097;-73
2022/02/21 00:15:34;;;;;;;17.48;4.90;;;;;;;;;;4977378;28;20615;-73
2022/02/21 00:18:01;;;;;;;15.25;3.80;;;;;;;;;;4989881;28;20056;-74
2022/02/21 00:20:27;;;;;;;14.70;4.43;;;;;;;;;;4981599;28;20401;-74
2022/02/21 00:22:53;;;;;;;12.73;4.50;;;;;;;;;;4976617;28;20034;-73
2022/02/21 00:25:20;;;;;;;16.55;5.43;;;;;;;;;;4982275;28;20532;-74
2022/02/21 00:27:46;;;;;;;14.73;5.25;;;;;;;;;;4979457;28;20054;-74
2022/02/21 00:30:12;;;;;;;15.88;5.10;;;;;;;;;;4979275;28;20026;-73
2022/02/21 00:32:38;;;;;;;14.88;5.53;;;;;;;;;;4980508;28;20481;-75
2022/02/21 00:35:05;;;;;;;14.50;4.60;;;;;;;;;;4976945;28;20027;-74
2022/02/21 00:37:31;;;;;;;9.80;4.32;;;;;;;;;;4985309;28;20026;-74
2022/02/21 00:39:57;;;;;;;12.82;4.10;;;;;;;;;;4981430;28;20029;-74
2022/02/21 00:42:24;;;;;;;14.73;4.15;;;;;;;;;;4983627;28;20037;-73
2022/02/21 00:44:55;;;;;;;20.58;4.43;;;;;;;;;;4978419;28;20035;-73
2022/02/21 00:47:21;;;;;;;15.43;4.32;;;;;;;;;;4977229;28;20045;-75
2022/02/21 00:49:47;;;;;;;21.50;4.18;;;;;;;;;;4997275;28;20065;-74
2022/02/21 00:52:13;;;;;;;25.73;4.45;;;;;;;;;;4979324;28;20027;-74
2022/02/21 00:54:40;;;;;;;12.48;4.70;;;;;;;;;;4981757;28;20430;-74
2022/02/21 00:57:06;;;;;;;15.15;5.30;;;;;;;;;;4978322;28;20036;-74
2022/02/21 00:59:32;;;;;;;16.10;4.97;;;;;;;;;;4980210;28;20055;-73
2022/02/21 01:01:58;;;;;;;20.35;4.45;;;;;;;;;;4978223;28;20026;-74
2022/02/21 01:04:24;;;;;;;16.42;4.38;;;;;;;;;;4975438;28;20058;-74
2022/02/21 01:06:50;;;;;;;16.13;6.35;;;;;;;;;;4979384;28;20551;-74
2022/02/21 01:09:16;;;;;;;12.98;4.05;;;;;;;;;;4979576;28;20088;-75
2022/02/21 01:11:42;;;;;;;18.13;5.00;;;;;;;;;;4980433;28;20034;-74
2022/02/21 01:14:09;;;;;;;14.48;4.38;;;;;;;;;;4983066;28;20033;-75
2022/02/21 01:16:35;;;;;;;17.13;4.18;;;;;;;;;;4985909;28;20041;-75
2022/02/21 01:19:01;;;;;;;11.52;3.78;;;;;;;;;;4988055;28;20046;-75
2022/02/21 01:21:27;;;;;;;15.18;3.85;;;;;;;;;;4988026;28;20038;-74
2022/02/21 01:23:53;;;;;;;13.23;3.72;;;;;;;;;;4988612;28;20035;-75
2022/02/21 01:26:19;;;;;;;16.38;3.80;;;;;;;;;;4989403;28;20035;-75
2022/02/21 01:28:45;;;;;;;19.00;3.83;;;;;;;;;;4983238;28;20089;-75
2022/02/21 01:31:13;;;;;;;22.75;4.97;;;;;;;;;;4981843;28;20043;-75
2022/02/21 01:33:39;;;;;;;18.45;4.88;;;;;;;;;;4976998;28;20031;-74
2022/02/21 01:36:05;;;;;;;19.98;4.15;;;;;;;;;;4984074;28;20034;-74
2022/02/21 01:38:31;;;;;;;12.38;4.38;;;;;;;;;;4987483;28;20050;-75
2022/02/21 01:40:57;;;;;;;17.52;5.53;;;;;;;;;;4987801;28;20034;-74
2022/02/21 01:43:23;;;;;;;14.85;4.57;;;;;;;;;;4982791;28;20508;-73
2022/02/21 01:45:49;;;;;;;15.23;4.38;;;;;;;;;;4983222;28;20018;-75
2022/02/21 01:48:15;;;;;;;13.45;5.70;;;;;;;;;;4978477;28;20121;-74
2022/02/21 01:50:42;;;;;;;13.98;4.15;;;;;;;;;;4977088;28;20026;-75
2022/02/21 01:53:09;;;;;;;20.05;5.90;;;;;;;;;;4983916;28;20090;-74
2022/02/21 01:55:35;;;;;;;16.23;3.97;;;;;;;;;;4982076;28;21033;-74
2022/02/21 01:58:01;;;;;;;18.52;4.40;;;;;;;;;;4991907;28;20034;-75
2022/02/21 02:00:27;;;;;;;19.95;5.22;;;;;;;;;;4981749;28;20022;-76
2022/02/21 02:02:53;;;;;;;19.08;4.55;;;;;;;;;;4991117;28;20023;-74
2022/02/21 02:05:22;;;;;;;14.13;4.40;;;;;;;;;;4984025;28;20038;-74
2022/02/21 02:10:52;;;;;;;22.70;5.53;;;;;;;;;;4977979;28;20034;-75
2022/02/21 02:13:18;;;;;;;12.27;4.70;;;;;;;;;;4993358;28;20064;-74
2022/02/21 02:15:44;;;;;;;21.67;4.03;;;;;;;;;;4992517;28;20054;-74
2022/02/21 02:18:11;;;;;;;16.65;5.03;;;;;;;;;;4983313;28;20520;-74
2022/02/21 02:20:37;;;;;;;13.93;3.55;;;;;;;;;;4990543;28;20032;-75
2022/02/21 02:23:06;;;;;;;17.13;4.63;;;;;;;;;;4980472;28;20150;-74
2022/02/21 02:25:33;;;;;;;15.60;5.75;;;;;;;;;;4982896;28;20053;-74
2022/02/21 02:27:59;;;;;;;18.70;4.68;;;;;;;;;;4981168;28;20029;-74
2022/02/21 02:30:25;;;;;;;18.17;5.07;;;;;;;;;;4983380;28;20037;-74
2022/02/21 02:32:54;;;;;;;17.20;5.25;;;;;;;;;;4980614;28;20030;-74
2022/02/21 02:35:21;;;;;;;21.67;6.18;;;;;;;;;;4981431;28;20038;-74
2022/02/21 02:37:47;;;;;;;17.70;5.25;;;;;;;;;;4982807;28;20026;-74
2022/02/21 02:40:15;;;;;;;20.77;5.15;;;;;;;;;;4981376;28;20027;-73
2022/02/21 02:42:41;;;;;;;22.42;5.25;;;;;;;;;;4981090;28;20464;-74
2022/02/21 02:45:07;;;;;;;25.20;5.88;;;;;;;;;;4977775;28;20033;-75
2022/02/21 02:47:33;;;;;;;20.70;5.65;;;;;;;;;;4981626;28;20031;-74
2022/02/21 02:49:59;;;;;;;19.52;4.10;;;;;;;;;;4981235;28;20446;-74
2022/02/21 02:52:26;;;;;;;26.27;5.43;;;;;;;;;;4989377;28;20041;-74
2022/02/21 02:54:52;;;;;;;24.52;6.10;;;;;;;;;;4980574;28;20041;-73
2022/02/21 02:57:18;;;;;;;19.52;4.32;;;;;;;;;;4980556;28;20493;-74
2022/02/21 02:59:44;;;;;;;21.85;6.50;;;;;;;;;;4988283;28;20132;-74
2022/02/21 03:02:10;;;;;;;17.83;4.38;;;;;;;;;;4981936;28;20033;-74
2022/02/21 03:04:36;;;;;;;19.42;5.18;;;;;;;;;;5001548;28;20065;-73
2022/02/21 03:07:02;;;;;;;25.92;5.68;;;;;;;;;;4988172;28;20804;-74
2022/02/21 03:09:29;;;;;;;15.90;4.55;;;;;;;;;;4982253;28;20496;-75
2022/02/21 03:11:55;;;;;;;19.42;4.75;;;;;;;;;;4982841;28;20030;-74
2022/02/21 03:14:22;;;;;;;18.83;5.18;;;;;;;;;;4992918;28;20164;-74
2022/02/21 03:16:48;;;;;;;19.42;4.47;;;;;;;;;;4987108;28;20366;-74
2022/02/21 03:19:14;;;;;;;32.35;5.93;;;;;;;;;;4998337;28;20046;-73
2022/02/21 03:21:40;;;;;;;25.60;5.63;;;;;;;;;;4979342;28;20523;-74
2022/02/21 03:24:06;;;;;;;21.00;5.45;;;;;;;;;;4982179;28;20568;-72
2022/02/21 03:26:32;;;;;;;21.52;6.03;;;;;;;;;;4980265;28;20309;-75
2022/02/21 03:28:58;;;;;;;16.17;5.63;;;;;;;;;;4981524;28;20022;-74
2022/02/21 03:31:24;;;;;;;17.67;5.85;;;;;;;;;;4984491;28;20027;-74
2022/02/21 03:33:50;;;;;;;20.05;5.38;;;;;;;;;;4986137;28;20113;-74
2022/02/21 03:36:16;;;;;;;21.63;5.03;;;;;;;;;;4981170;28;20453;-73
2022/02/21 03:38:43;;;;;;;21.08;5.57;;;;;;;;;;4980642;28;20050;-73
2022/02/21 03:41:09;;;;;;;22.02;5.82;;;;;;;;;;4977129;28;20334;-74
2022/02/21 03:43:35;;;;;;;18.35;4.93;;;;;;;;;;4980639;28;20031;-75
2022/02/21 03:46:01;;;;;;;19.58;4.68;;;;;;;;;;4983949;28;20187;-75
2022/02/21 03:48:27;;;;;;;26.80;5.25;;;;;;;;;;4981650;28;20097;-74
2022/02/21 03:50:53;;;;;;;23.48;5.38;;;;;;;;;;4975875;28;20088;-75
2022/02/21 03:53:19;;;;;;;17.63;5.15;;;;;;;;;;4983183;28;20030;-74
2022/02/21 03:55:46;;;;;;;29.67;7.05;;;;;;;;;;4981756;28;20081;-74
2022/02/21 03:58:12;;;;;;;22.73;5.95;;;;;;;;;;4981590;28;20041;-74
2022/02/21 04:00:38;;;;;;;19.40;5.70;;;;;;;;;;4979240;28;20031;-75
2022/02/21 04:03:04;;;;;;;28.77;6.90;;;;;;;;;;4987872;28;20026;-74
2022/02/21 04:05:30;;;;;;;18.45;4.63;;;;;;;;;;4995357;28;20037;-74
2022/02/21 04:07:56;;;;;;;19.65;5.40;;;;;;;;;;4992845;28;20027;-75
2022/02/21 04:10:22;;;;;;;20.08;5.68;;;;;;;;;;4992229;28;20033;-74
2022/02/21 04:12:48;;;;;;;21.98;5.63;;;;;;;;;;4988385;28;20101;-74
2022/02/21 04:15:15;;;;;;;18.90;5.65;;;;;;;;;;4982619;28;20038;-74
2022/02/21 04:17:42;;;;;;;17.05;6.13;;;;;;;;;;4983373;28;20489;-74
2022/02/21 04:20:09;;;;;;;16.10;4.82;;;;;;;;;;4991422;28;20030;-74
2022/02/21 04:22:35;;;;;;;16.25;5.20;;;;;;;;;;4982820;28;20117;-76
2022/02/21 04:25:01;;;;;;;16.70;4.88;;;;;;;;;;4982007;28;20033;-74
2022/02/21 04:27:27;;;;;;;22.45;5.07;;;;;;;;;;4989925;28;20085;-75
2022/02/21 04:29:53;;;;;;;25.40;5.70;;;;;;;;;;4979844;28;20054;-74
2022/02/21 04:32:19;;;;;;;14.15;4.97;;;;;;;;;;4981065;28;20031;-74
2022/02/21 04:34:45;;;;;;;17.10;6.40;;;;;;;;;;4981876;28;20100;-74
2022/02/21 04:37:12;;;;;;;28.67;5.90;;;;;;;;;;4982764;28;20023;-74
2022/02/21 04:39:38;;;;;;;14.65;5.45;;;;;;;;;;4983931;28;20032;-74
2022/02/21 04:42:04;;;;;;;18.25;6.25;;;;;;;;;;4980189;28;20030;-73
2022/02/21 04:44:31;;;;;;;21.15;5.53;;;;;;;;;;4981671;28;20026;-75
2022/02/21 04:46:58;;;;;;;19.02;5.18;;;;;;;;;;4981253;28;20031;-73
2022/02/21 04:49:24;;;;;;;19.98;5.13;;;;;;;;;;4981700;28;20450;-74
2022/02/21 04:51:50;;;;;;;20.48;5.38;;;;;;;;;;4980725;28;20080;-74
2022/02/21 04:54:16;;;;;;;18.48;5.10;;;;;;;;;;4981628;28;20030;-74
2022/02/21 04:56:42;;;;;;;14.50;4.22;;;;;;;;;;4981964;28;20061;-73
2022/02/21 04:59:09;;;;;;;15.77;5.40;;;;;;;;;;4980364;28;20030;-73
2022/02/21 05:01:35;;;;;;;16.33;4.30;;;;;;;;;;4986511;28;20058;-74
2022/02/21 05:04:01;;;;;;;15.93;4.28;;;;;;;;;;4985871;28;20034;-74
2022/02/21 05:06:27;;;;;;;15.18;5.03;;;;;;;;;;4990948;28;20039;-74
2022/02/21 05:08:53;;;;;;;14.73;5.45;;;;;;;;;;4994994;28;20037;-74
2022/02/21 05:11:19;;;;;;;22.38;4.22;;;;;;;;;;4986447;28;20030;-73
2022/02/21 05:13:45;;;;;;;12.43;4.53;;;;;;;;;;4979901;28;20031;-74
2022/02/21 05:16:11;;;;;;;15.43;4.68;;;;;;;;;;4996237;28;20030;-74
2022/02/21 05:18:38;;;;;;;22.30;6.25;;;;;;;;;;4981540;28;20041;-74
2022/02/21 05:21:04;;;;;;;16.55;4.90;;;;;;;;;;4982034;28;20046;-73
2022/02/21 05:23:30;;;;;;;26.60;4.85;;;;;;;;;;4979589;28;20030;-73
2022/02/21 05:25:56;;;;;;;17.08;3.90;;;;;;;;;;4984933;28;20029;-74
2022/02/21 05:28:22;;;;;;;21.15;4.78;;;;;;;;;;4980624;28;20406;-74
2022/02/21 05:30:48;;;;;;;10.73;3.80;;;;;;;;;;4981271;28;20362;-75
2022/02/21 05:33:15;;;;;;;16.45;5.32;;;;;;;;;;4985440;28;20022;-73
2022/02/21 05:35:41;;;;;;;25.60;5.20;;;;;;;;;;5000766;28;20172;-75
2022/02/21 05:38:07;;;;;;;17.90;5.03;;;;;;;;;;4997417;28;20032;-75
2022/02/21 05:40:33;;;;;;;13.98;5.07;;;;;;;;;;4991124;28;20035;-72
2022/02/21 05:42:59;;;;;;;19.50;5.22;;;;;;;;;;4987676;28;20057;-74
2022/02/21 05:45:26;;;;;;;20.95;5.30;;;;;;;;;;4980611;28;20034;-73
2022/02/21 05:47:52;;;;;;;22.13;6.00;;;;;;;;;;4986172;28;20033;-74
2022/02/21 05:50:18;;;;;;;15.50;4.55;;;;;;;;;;4998283;28;20030;-74
2022/02/21 05:52:44;;;;;;;19.67;4.15;;;;;;;;;;4993235;28;20036;-74
2022/02/21 05:55:10;;;;;;;19.58;4.68;;;;;;;;;;4988982;28;20104;-74
2022/02/21 05:57:36;;;;;;;18.83;4.53;;;;;;;;;;4983277;28;20403;-75
2022/02/21 06:00:04;;;;;;;11.68;4.10;;;;;;;;;;4987700;28;20018;-73
2022/02/21 06:02:30;;;;;;;17.23;4.20;;;;;;;;;;4984598;28;20680;-74
2022/02/21 06:04:56;;;;;;;19.17;5.65;;;;;;;;;;4985891;28;20577;-74
2022/02/21 06:07:22;;;;;;;14.32;4.90;;;;;;;;;;4986007;28;20089;-74
2022/02/21 06:09:48;;;;;;;17.42;4.28;;;;;;;;;;5000431;28;20076;-74
2022/02/21 06:12:14;;;;;;;19.50;4.78;;;;;;;;;;4985009;28;20082;-74
2022/02/21 06:14:40;;;;;;;13.77;4.35;;;;;;;;;;4982025;28;20190;-72
2022/02/21 06:17:07;;;;;;;18.13;5.00;;;;;;;;;;4987136;28;20535;-74
2022/02/21 06:19:33;;;;;;;16.35;4.40;;;;;;;;;;4989962;28;20173;-74
2022/02/21 06:22:01;;;;;;;17.67;4.38;;;;;;;;;;4986484;28;20022;-75
2022/02/21 06:24:27;;;;;;;14.32;4.93;;;;;;;;;;4986782;28;20082;-74
2022/02/21 06:26:53;;;;;;;12.60;4.38;;;;;;;;;;4987078;28;20162;-74
2022/02/21 06:29:20;;;;;;;11.38;4.60;;;;;;;;;;4987980;28;20116;-73
2022/02/21 06:31:47;;;;;;;24.15;5.57;;;;;;;;;;4977681;28;20092;-74
2022/02/21 06:34:13;;;;;;;14.13;5.32;;;;;;;;;;4978637;28;20516;-73
2022/02/21 06:36:39;;;;;;;21.15;5.45;;;;;;;;;;4981246;28;20031;-75
2022/02/21 06:39:05;;;;;;;28.80;6.43;;;;;;;;;;4991863;28;20101;-75
2022/02/21 06:41:31;;;;;;;15.63;4.78;;;;;;;;;;4987478;28;20038;-74
2022/02/21 06:43:57;;;;;;;20.05;5.20;;;;;;;;;;4986503;28;20531;-75
2022/02/21 06:46:24;;;;;;;21.10;5.95;;;;;;;;;;4986014;28;20027;-73
2022/02/21 06:48:52;;;;;;;19.13;5.07;;;;;;;;;;4986418;28;20081;-74
2022/02/21 06:51:18;;;;;;;22.23;6.28;;;;;;;;;;4979546;28;20045;-73
2022/02/21 06:53:44;;;;;;;16.08;4.75;;;;;;;;;;4990415;28;20396;-74
2022/02/21 06:56:10;;;;;;;24.70;4.35;;;;;;;;;;4985278;28;20023;-74
2022/02/21 06:58:37;;;;;;;21.85;6.00;;;;;;;;;;4983726;28;20504;-74
2022/02/21 07:01:03;;;;;;;21.80;5.88;;;;;;;;;;4981385;28;20081;-74
2022/02/21 07:03:29;;;;;;;19.92;6.15;;;;;;;;;;4981556;28;20029;-75
2022/02/21 07:05:55;;;;;;;17.13;4.78;;;;;;;;;;4987971;28;20030;-74
2022/02/21 07:08:21;;;;;;;23.30;6.15;;;;;;;;;;4983336;28;20042;-74
2022/02/21 07:10:47;;;;;;;23.52;6.28;;;;;;;;;;4989021;28;20022;-74
2022/02/21 07:13:14;;;;;;;19.80;4.30;;;;;;;;;;4984645;28;20022;-75
2022/02/21 07:15:40;;;;;;;25.45;6.13;;;;;;;;;;4981991;28;20026;-73
2022/02/21 07:18:06;;;;;;;19.95;5.35;;;;;;;;;;5002766;28;20057;-75
2022/02/21 07:20:32;;;;;;;27.85;6.30;;;;;;;;;;4983815;28;20196;-75
2022/02/21 07:22:58;;;;;;;26.40;5.68;;;;;;;;;;4982478;28;20069;-74
2022/02/21 07:25:24;;;;;;;22.60;5.45;;;;;;;;;;4985055;28;20033;-73
2022/02/21 07:27:52;;;;;;;20.10;5.75;;;;;;;;;;4985763;28;20072;-74
2022/02/21 07:30:19;;;;;;;18.75;4.80;;;;;;;;;;4999610;28;20041;-73
2022/02/21 07:32:46;;;;;;;21.77;6.22;;;;;;;;;;4980170;28;20072;-73
2022/02/21 07:35:12;;;;;;;21.80;5.55;;;;;;;;;;4983958;28;20180;-74
2022/02/21 07:37:41;;;;;;;23.25;6.90;;;;;;;;;;4980790;28;20385;-75
2022/02/21 07:40:08;;;;;;;9.38;4.53;;;;;;;;;;4983959;28;20585;-71
2022/02/21 07:42:35;;;;;;;23.88;6.03;;;;;;;;;;4980251;28;20148;-74
2022/02/21 07:45:01;;;;;;;19.23;6.07;;;;;;;;;;4981862;28;20061;-73
2022/02/21 07:47:27;;;;;;;18.42;4.65;;;;;;;;;;4981159;28;20034;-73
2022/02/21 07:49:53;;;;;;;18.95;4.90;;;;;;;;;;4979261;28;20054;-75
2022/02/21 07:52:20;;;;;;;18.08;5.10;;;;;;;;;;4987751;28;20034;-73
2022/02/21 07:54:46;;;;;;;18.55;4.35;;;;;;;;;;4981031;28;20047;-74
2022/02/21 07:57:13;;;;;;;17.10;5.13;;;;;;;;;;4984177;28;20033;-74
2022/02/21 07:59:39;;;;;;;22.83;5.07;;;;;;;;;;4987282;28;20025;-74
2022/02/21 08:02:06;;;;;;;25.98;5.68;;;;;;;;;;4982468;28;20474;-74
2022/02/21 08:04:32;;;;;;;19.85;5.72;;;;;;;;;;4988340;28;20112;-75
2022/02/21 08:06:58;;;;;;;24.83;5.40;;;;;;;;;;4986281;28;20031;-74
2022/02/21 08:09:24;;;;;;;22.00;6.13;;;;;;;;;;4983158;28;20034;-74
2022/02/21 08:11:50;;;;;;;30.95;6.47;;;;;;;;;;4988867;28;20384;-73
2022/02/21 08:14:16;;;;;;;20.83;5.65;;;;;;;;;;5005722;28;20030;-74
2022/02/21 08:16:43;;;;;;;23.75;6.25;;;;;;;;;;4992111;28;20543;-69
2022/02/21 08:19:10;;;;;;;23.25;7.32;;;;;;;;;;4987804;28;20050;-71
2022/02/21 08:21:37;;;;;;;20.77;5.95;;;;;;;;;;4991576;28;20025;-72
2022/02/21 08:24:04;;;;;;;16.25;5.40;;;;;;;;;;4996818;28;20030;-70
2022/02/21 08:26:32;;;;;;;14.80;4.85;;;;;;;;;;4991071;28;20023;-70
2022/02/21 08:28:58;;;;;;;21.13;4.78;;;;;;;;;;4988632;28;20034;-72
2022/02/21 08:31:24;;;;;;;20.77;5.57;;;;;;;;;;4989397;28;20042;-71
2022/02/21 08:33:50;;;;;;;29.60;5.18;;;;;;;;;;5008056;28;20451;-71
2022/02/21 08:36:16;;;;;;;21.50;5.55;;;;;;;;;;4999988;28;20059;-70
2022/02/21 08:38:42;;;;;;;21.17;7.15;;;;;;;;;;4987375;28;20035;-71
2022/02/21 08:41:10;;;;;;;28.38;6.00;;;;;;;;;;4991284;28;20062;-71
2022/02/21 08:43:36;;;;;;;22.90;5.03;;;;;;;;;;4992584;28;20029;-72
2022/02/21 08:46:02;;;;;;;21.85;6.38;;;;;;;;;;4987143;28;20053;-70
2022/02/21 08:48:28;;;;;;;24.25;5.82;;;;;;;;;;4992647;28;20038;-70
2022/02/21 08:50:54;;;;;;;21.45;5.55;;;;;;;;;;5000922;28;20604;-71
2022/02/21 08:53:20;;;;;;;18.10;6.40;;;;;;;;;;4994391;28;20062;-70
2022/02/21 08:55:46;;;;;;;24.70;6.80;;;;;;;;;;4990410;28;20038;-71
2022/02/21 08:58:13;;;;;;;21.20;6.18;;;;;;;;;;4997409;28;20034;-70
2022/02/21 09:00:40;;;;;;;22.48;5.18;;;;;;;;;;5000960;28;20422;-71
2022/02/21 09:03:06;;;;;;;17.10;5.82;;;;;;;;;;4993430;28;20110;-74
2022/02/21 09:05:33;;;;;;;30.05;6.25;;;;;;;;;;4985532;28;20049;-74
2022/02/21 09:07:59;;;;;;;24.40;6.85;;;;;;;;;;4991584;28;20472;-71
2022/02/21 09:10:25;;;;;;;17.85;5.95;;;;;;;;;;4993731;28;20041;-73
2022/02/21 09:12:51;;;;;;;27.02;5.88;;;;;;;;;;4980483;28;20030;-71
2022/02/21 09:15:17;;;;;;;16.83;5.70;;;;;;;;;;5012331;28;20092;-73
2022/02/21 09:17:43;;;;;;;19.33;5.68;;;;;;;;;;4991072;28;20034;-73
2022/02/21 09:20:10;;;;;;;20.88;5.90;;;;;;;;;;4986531;28;20061;-75
2022/02/21 09:22:36;;;;;;;22.08;5.30;;;;;;;;;;4988119;28;20392;-71
2022/02/21 09:25:02;;;;;;;25.42;6.18;;;;;;;;;;4996127;28;20034;-74
2022/02/21 09:27:28;;;;;;;20.45;6.70;;;;;;;;;;4987181;28;20026;-70
2022/02/21 09:29:54;;;;;;;33.75;6.07;;;;;;;;;;4992007;28;20592;-72
2022/02/21 09:32:20;;;;;;;20.00;5.68;;;;;;;;;;5002784;28;20421;-71
2022/02/21 09:34:46;;;;;;;26.33;6.93;;;;;;;;;;4992439;28;20035;-72
2022/02/21 09:37:12;;;;;;;23.33;5.90;;;;;;;;;;5009926;28;20022;-73
2022/02/21 09:39:38;;;;;;;24.33;6.65;;;;;;;;;;4993742;28;20034;-70
2022/02/21 09:42:05;;;;;;;21.55;6.28;;;;;;;;;;4998389;28;20104;-71
2022/02/21 09:44:31;;;;;;;22.60;6.78;;;;;;;;;;4992783;28;20086;-74
2022/02/21 09:46:57;;;;;;;25.40;6.03;;;;;;;;;;4988684;28;20030;-71
2022/02/21 09:49:23;;;;;;;27.58;6.40;;;;;;;;;;4997256;28;20031;-71
2022/02/21 09:51:50;;;;;;;26.33;6.55;;;;;;;;;;4994461;28;20094;-71
2022/02/21 09:54:16;;;;;;;28.55;7.53;;;;;;;;;;4987518;28;20058;-71
2022/02/21 09:56:47;;;;;;;22.23;6.40;;;;;;;;;;5010703;28;20430;-71
2022/02/21 09:59:14;;;;;;;26.30;6.65;;;;;;;;;;4996977;28;20031;-73
2022/02/21 10:01:40;;;;;;;17.65;5.63;;;;;;;;;;4991696;28;20082;-72
2022/02/21 10:04:06;;;;;;;22.58;7.63;;;;;;;;;;4985792;28;21962;-72
2022/02/21 10:06:33;;;;;;;22.58;6.63;;;;;;;;;;4988328;28;20027;-71
2022/02/21 10:09:04;;;;;;;23.80;6.65;;;;;;;;;;4995678;28;20037;-73
2022/02/21 10:11:35;;;;;;;19.65;5.40;;;;;;;;;;5006719;28;20051;-71
2022/02/21 10:14:05;;;;;;;24.60;5.72;;;;;;;;;;4995593;28;20132;-72
2022/02/21 10:16:51;;;;;;;21.52;5.35;;;;;;;;;;4991713;28;20026;-69
2022/02/21 10:19:23;;;;;;;28.45;6.53;;;;;;;;;;5002549;28;20057;-69
2022/02/21 10:21:57;;;;;;;27.88;7.57;;;;;;;;;;5016918;28;20480;-69
2022/02/21 10:24:24;;;;;;;24.42;6.32;;;;;;;;;;5018250;28;20023;-69
2022/02/21 10:26:51;;;;;;;24.30;5.97;;;;;;;;;;4992314;28;20027;-69
2022/02/21 10:29:18;;;;;;;20.80;6.00;;;;;;;;;;4994815;28;20092;-69
2022/02/21 10:31:44;;;;;;;26.52;6.43;;;;;;;;;;4988362;28;20034;-72
2022/02/21 10:34:10;;;;;;;15.63;5.00;;;;;;;;;;4990667;28;20061;-72
2022/02/21 10:36:38;;;;;;;24.83;6.85;;;;;;;;;;4986465;28;20022;-69
2022/02/21 10:39:25;;;;;;;26.02;8.20;;;;;;;;;;4993344;28;20385;-69
2022/02/21 10:41:57;;;;;;;24.60;7.55;;;;;;;;;;4990738;28;20023;-69
2022/02/21 10:44:28;;;;;;;19.95;5.10;;;;;;;;;;4998794;28;20122;-69
2022/02/21 10:47:10;;;;;;;22.38;7.28;;;;;;;;;;5006876;28;20033;-69
2022/02/21 10:49:45;;;;;;;17.17;5.25;;;;;;;;;;4994926;28;20045;-70
2022/02/21 10:52:12;;;;;;;19.02;5.45;;;;;;;;;;4988239;28;20451;-73
2022/02/21 10:54:39;;;;;;;15.23;6.50;;;;;;;;;;4988176;28;20035;-70
2022/02/21 10:57:09;;;;;;;20.70;4.88;;;;;;;;;;4993428;28;20457;-69
2022/02/21 10:59:35;;;;;;;22.63;5.05;;;;;;;;;;4994764;28;20176;-69
2022/02/21 11:02:02;;;;;;;19.05;5.78;;;;;;;;;;4995254;28;20023;-70
2022/02/21 11:04:29;;;;;;;23.70;6.82;;;;;;;;;;4986621;28;20034;-72
2022/02/21 11:06:55;;;;;;;18.88;5.45;;;;;;;;;;4993329;28;20030;-69
2022/02/21 11:09:24;;;;;;;22.75;5.38;;;;;;;;;;4990457;28;20169;-68
2022/02/21 11:11:51;;;;;;;24.48;5.32;;;;;;;;;;4992697;28;20076;-68
2022/02/21 11:14:26;;;;;;;22.73;7.28;;;;;;;;;;4989566;28;20034;-68
2022/02/21 11:16:52;;;;;;;;;;;;;;;;;;4993684;28;20022;-68
2022/02/21 11:19:18;;;;;;;;;;;;;;;;;;4986399;28;19989;-69
2022/02/21 11:21:46;;;;;;;29.30;5.63;;;;;;;;;;4984161;28;20861;-72
2022/02/21 11:24:13;;;;;;;27.15;5.85;;;;;;;;;;4991899;28;20026;-73
2022/02/21 11:26:43;;;;;;;18.17;5.20;;;;;;;;;;4993147;28;20117;-71
2022/02/21 11:29:32;;;;;;;25.52;5.82;;;;;;;;;;4988137;28;20030;-71
2022/02/21 11:31:59;;;;;;;22.58;6.15;;;;;;;;;;4980523;28;20073;-71
2022/02/21 11:34:25;;;;;;;22.85;4.72;;;;;;;;;;5005457;28;20062;-74
2022/02/21 11:36:57;;;;;;;24.95;5.25;;;;;;;;;;4986767;28;20034;-70
2022/02/21 11:39:26;;;;;;;17.75;4.53;;;;;;;;;;4987911;28;20018;-71
2022/02/21 11:42:16;;;;;;;43.90;8.02;;;;;;;;;;4986260;28;20025;-73
2022/02/21 11:45:02;;;;;;;20.20;5.18;;;;;;;;;;4983305;28;20034;-70
2022/02/21 11:47:42;;;;;;;17.67;4.97;;;;;;;;;;4985672;28;20031;-71
2022/02/21 11:50:21;;;;;;;26.85;5.10;;;;;;;;;;4986852;28;20034;-70
2022/02/21 11:52:51;;;;;;;18.60;4.68;;;;;;;;;;4992523;28;20056;-71
2022/02/21 11:55:30;;;;;;;21.98;5.93;;;;;;;;;;5007653;28;20026;-70
2022/02/21 11:57:56;;;;;;;16.60;4.68;;;;;;;;;;4990499;28;20551;-73
2022/02/21 12:00:41;;;;;;;14.77;5.10;;;;;;;;;;4999456;28;20033;-69
2022/02/21 12:03:08;;;;;;;17.67;5.68;;;;;;;;;;5007860;28;20027;-71
2022/02/21 12:05:35;;;;;;;22.77;4.70;;;;;;;;;;4996673;28;20026;-72
2022/02/21 12:08:17;;;;;;;16.30;4.13;;;;;;;;;;4993273;28;20092;-74
2022/02/21 12:10:50;;;;;;;;;;;;;;;;;;5087759;27;20374;-71
2022/02/21 12:13:21;;;;;;;;;;;;;;;;;;5072118;28;19908;-71
2022/02/21 12:16:03;;;;;;;26.75;7.05;;;;;;;;;;5069238;28;20321;-70
2022/02/21 12:18:31;;;;;;;11.55;4.00;;;;;;;;;;5071572;28;20029;-71
2022/02/21 12:21:14;;;;;;;16.17;4.78;;;;;;;;;;5070308;28;20025;-71
2022/02/21 12:23:55;;;;;;;17.13;3.90;;;;;;;;;;5067733;28;20038;-70
2022/02/21 12:26:28;;;;;;;19.20;5.35;;;;;;;;;;5071719;28;20025;-70
2022/02/21 12:29:11;;;;;;;20.67;5.25;;;;;;;;;;5073127;28;20513;-70
2022/02/21 12:31:38;;;;;;;20.60;5.82;;;;;;;;;;5069573;28;20051;-72
2022/02/21 12:34:04;;;;;;;23.25;5.10;;;;;;;;;;5066624;28;20319;-71
2022/02/21 12:36:34;;;;;;;13.40;4.55;;;;;;;;;;5062168;28;20067;-75
2022/02/21 12:39:01;;;;;;;18.23;4.65;;;;;;;;;;5070458;28;20036;-75
2022/02/21 12:41:30;;;;;;;15.60;4.68;;;;;;;;;;5065651;28;20033;-73
2022/02/21 12:43:58;;;;;;;16.95;4.95;;;;;;;;;;5088139;28;20525;-73
2022/02/21 12:46:24;;;;;;;17.10;4.78;;;;;;;;;;5066660;28;20494;-71
2022/02/21 12:48:50;;;;;;;13.23;4.50;;;;;;;;;;5082303;28;20025;-72
2022/02/21 12:51:24;;;;;;;15.07;5.10;;;;;;;;;;5070291;28;20025;-74
2022/02/21 12:53:57;;;;;;;18.77;4.60;;;;;;;;;;5059440;28;20025;-74
2022/02/21 12:56:24;;;;;;;19.70;4.70;;;;;;;;;;5067517;28;20313;-74
2022/02/21 12:58:50;;;;;;;17.27;5.68;;;;;;;;;;5071335;28;20267;-72
2022/02/21 13:01:20;;;;;;;15.15;4.60;;;;;;;;;;5085330;28;20047;-71
2022/02/21 13:03:50;;;;;;;18.17;4.25;;;;;;;;;;5073353;28;20052;-70
2022/02/21 13:06:16;;;;;;;12.27;3.47;;;;;;;;;;5072505;28;20028;-73
2022/02/21 13:08:42;;;;;;;19.25;5.32;;;;;;;;;;5072091;28;20052;-71
2022/02/21 13:11:08;;;;;;;15.73;4.13;;;;;;;;;;5088894;28;20042;-71
2022/02/21 13:13:44;;;;;;;12.98;4.00;;;;;;;;;;5075523;28;20055;-71
2022/02/21 13:16:10;;;;;;;16.40;4.45;;;;;;;;;;5072557;28;20021;-70
2022/02/21 13:19:06;;;;;;;13.60;4.18;;;;;;;;;;5072753;28;20028;-70
2022/02/21 13:21:40;;;;;;;13.27;3.45;;;;;;;;;;5052822;28;20036;-71
2022/02/21 13:24:10;;;;;;;20.88;3.95;;;;;;;;;;5057241;28;20025;-71
2022/02/21 13:26:40;;;;;;;13.90;3.85;;;;;;;;;;5056777;28;20258;-72
2022/02/21 13:29:06;;;;;;;15.52;5.57;;;;;;;;;;5060297;28;20037;-72
2022/02/21 13:31:42;;;;;;;17.63;5.28;;;;;;;;;;5056511;28;20112;-71
2022/02/21 13:34:08;;;;;;;17.40;4.35;;;;;;;;;;5055909;28;20013;-71
2022/02/21 13:36:34;;;;;;;14.25;4.10;;;;;;;;;;5059341;28;20091;-70
2022/02/21 13:39:00;;;;;;;16.63;4.03;;;;;;;;;;5060465;28;20864;-72
2022/02/21 13:41:26;;;;;;;13.45;4.30;;;;;;;;;;5051488;28;20025;-72
2022/02/21 13:43:52;;;;;;;16.05;4.35;;;;;;;;;;5053210;28;20033;-71
2022/02/21 13:46:19;;;;;;;13.57;4.25;;;;;;;;;;5054419;28;20052;-75
2022/02/21 13:48:49;;;;;;;19.38;5.20;;;;;;;;;;5068367;28;20445;-70
2022/02/21 13:51:19;;;;;;;14.32;4.47;;;;;;;;;;5052569;28;20116;-71
2022/02/21 13:53:45;;;;;;;12.93;4.70;;;;;;;;;;5053135;28;20079;-73
2022/02/21 13:56:16;;;;;;;16.25;5.68;;;;;;;;;;5054705;28;20057;-71
2022/02/21 13:58:46;;;;;;;9.00;3.85;;;;;;;;;;5057664;28;20033;-70
2022/02/21 14:01:15;;;;;;;13.65;4.75;;;;;;;;;;5056491;28;20319;-72
2022/02/21 14:03:46;;;;;;;12.05;4.90;;;;;;;;;;5070090;28;20031;-72
2022/02/21 14:06:17;;;;;;;15.30;4.05;;;;;;;;;;5049002;28;20046;-69
2022/02/21 14:08:47;;;;;;;12.20;3.85;;;;;;;;;;5057144;28;20052;-71
2022/02/21 14:11:14;;;;;;;12.77;5.28;;;;;;;;;;5055921;28;20032;-75
2022/02/21 14:13:41;;;;;;;14.13;4.20;;;;;;;;;;5048693;28;20041;-74
2022/02/21 14:16:07;;;;;;;13.85;3.85;;;;;;;;;;5046467;28;20029;-73
2022/02/21 14:18:34;;;;;;;17.67;4.70;;;;;;;;;;5051122;28;20830;-71
2022/02/21 14:21:03;;;;;;;14.35;4.40;;;;;;;;;;5044875;28;20028;-71
2022/02/21 14:23:29;;;;;;;13.10;4.10;;;;;;;;;;5072474;28;20505;-74
2022/02/21 14:25:55;;;;;;;16.92;5.28;;;;;;;;;;5065360;28;20029;-74
2022/02/21 14:28:21;;;;;;;16.70;3.95;;;;;;;;;;5053246;28;20029;-72
2022/02/21 14:30:47;;;;;;;14.90;3.90;;;;;;;;;;5051548;28;20583;-72
2022/02/21 14:33:14;;;;;;;14.65;4.10;;;;;;;;;;5052640;28;20032;-75
2022/02/21 14:35:41;;;;;;;15.23;4.60;;;;;;;;;;5053084;28;20021;-73